Flight Track Log - Related Links

Times and Time Zones

All times are in EDT time to prevent confusion due to time zone crossing. See the EXS606 flight status page for this flight to view local times or setup timezone preferences in your user account.

Time Position Orientation Groundspeed Altitude Reporting Facility
EDT Latitude Longitude Course Direction KTS MPH feet Rate Location/Type
Thu 06:23:00 AM 37.6329 -4.3541 North  Level Estimated
Thu 06:24:00 AM 37.7287 -4.3394 North  Level Estimated
Thu 06:25:00 AM 37.8245 -4.3246 North  Level Estimated
Thu 06:26:00 AM 37.9203 -4.3099 North  Level Estimated
Thu 06:27:00 AM 38.0161 -4.2950 North  Level Estimated
Thu 06:28:00 AM 38.1119 -4.2802 North  Level Estimated
Thu 06:29:00 AM 38.2077 -4.2653 North  Level Estimated
Thu 06:30:00 AM 38.3035 -4.2503 North  Level Estimated
Thu 06:31:00 AM 38.3992 -4.2354 North  Level Estimated
Thu 06:32:00 AM 38.4950 -4.2203 North  Level Estimated
Thu 06:33:00 AM 38.5908 -4.2053 North  Level Estimated
Thu 06:34:00 AM 38.6866 -4.1902 North  Level Estimated
Thu 06:35:00 AM 38.7823 -4.1750 North  Level Estimated
Thu 06:36:00 AM 38.8781 -4.1599 North  Level Estimated
Thu 06:37:00 AM 38.9739 -4.1446 North  Level Estimated
Thu 06:38:00 AM 39.0696 -4.1294 North  Level Estimated
Thu 06:39:00 AM 39.1654 -4.1141 North  Level Estimated
Thu 06:40:00 AM 39.2612 -4.0987 North  Level Estimated
Thu 06:41:00 AM 39.3569 -4.0834 North  Level Estimated
Thu 06:42:00 AM 39.4527 -4.0679 North  Level Estimated
Thu 06:43:00 AM 39.5485 -4.0525 North  Level Estimated
Thu 06:44:00 AM 39.6442 -4.0369 North  Level Estimated
Thu 06:45:00 AM 39.7400 -4.0214 North  Level Estimated
Thu 06:46:00 AM 39.8357 -4.0058 North  Level Estimated
Thu 06:47:00 AM 39.9315 -3.9901 North  Level Estimated
Thu 06:48:00 AM 40.0272 -3.9745 North  Level Estimated
Thu 06:49:00 AM 40.1230 -3.9587 North  Level Estimated
Thu 06:50:00 AM 40.2187 -3.9429 North  Level Estimated
Thu 06:51:00 AM 40.3144 -3.9271 North  Level Estimated
Thu 06:52:00 AM 40.4102 -3.9113 North  Level Estimated
Thu 06:53:00 AM 40.5059 -3.8953 North  Level Estimated
Thu 06:54:00 AM 40.6017 -3.8794 North  Level Estimated
Thu 06:55:00 AM 40.6974 -3.8634 North  Level Estimated
Thu 06:56:00 AM 40.7931 -3.8473 North  Level Estimated
Thu 06:57:00 AM 40.8888 -3.8312 North  Level Estimated
Thu 06:58:00 AM 40.9846 -3.8151 North  Level Estimated
Thu 06:59:00 AM 41.0803 -3.7989 North  Level Estimated
Thu 07:00:00 AM 41.1760 -3.7827 North  Level Estimated
Thu 07:01:00 AM 41.2717 -3.7664 North  Level Estimated
Thu 07:02:00 AM 41.3675 -3.7501 North  Level Estimated
Thu 07:03:00 AM 41.4632 -3.7337 North  Level Estimated
Thu 07:04:00 AM 41.5589 -3.7173 North  Level Estimated
Thu 07:05:00 AM 41.6546 -3.7008 North  Level Estimated
Thu 07:06:00 AM 41.7503 -3.6843 North  Level Estimated
Thu 07:07:00 AM 41.8460 -3.6677 North  Level Estimated
Thu 07:08:00 AM 41.9417 -3.6511 North  Level Estimated
Thu 07:09:00 AM 42.0374 -3.6344 North  Level Estimated
Thu 07:10:00 AM 42.1331 -3.6177 North  Level Estimated
Thu 07:11:00 AM 42.2288 -3.6009 North  Level Estimated
Thu 07:12:00 AM 42.3245 -3.5841 North  Level Estimated
Thu 07:13:00 AM 42.4202 -3.5672 North  Level Estimated
Thu 07:14:00 AM 42.5159 -3.5503 North  Level Estimated
Thu 07:15:00 AM 42.6115 -3.5333 North  Level Estimated
Thu 07:16:00 AM 42.7072 -3.5162 North  Level Estimated
Thu 07:17:00 AM 42.8029 -3.4992 North  Level Estimated
Thu 07:18:00 AM 42.8986 -3.4820 North  Level Estimated
Thu 07:19:00 AM 42.9942 -3.4648 North  Level Estimated
Thu 07:20:00 AM 43.0899 -3.4476 North  Level Estimated
Thu 07:21:00 AM 43.1856 -3.4303 North  Level Estimated
Thu 07:22:00 AM 43.2812 -3.4129 North  Level Estimated
Thu 07:23:00 AM 43.3769 -3.3955 North  Level Estimated
Thu 07:24:00 AM 43.4726 -3.3781 North  Level Estimated
Thu 07:25:00 AM 43.5682 -3.3605 North  Level Estimated
Thu 07:26:00 AM 43.6639 -3.3430 North  Level Estimated
Thu 07:27:00 AM 43.7595 -3.3253 North  Level Estimated
Thu 07:28:00 AM 43.8552 -3.3077 North  Level Estimated
Thu 07:29:00 AM 43.9508 -3.2899 North  Level Estimated
Thu 07:30:00 AM 44.0465 -3.2721 North  Level Estimated
Thu 07:31:00 AM 44.1421 -3.2543 North  Level Estimated
Thu 07:32:00 AM 44.2378 -3.2363 North  Level Estimated
Thu 07:33:00 AM 44.3334 -3.2184 North  Level Estimated
Thu 07:34:00 AM 44.4290 -3.2003 North  Level Estimated
Thu 07:35:00 AM 44.5247 -3.1822 North  Level Estimated
Thu 07:36:00 AM 44.6203 -3.1641 North  Level Estimated
Thu 07:37:00 AM 44.7159 -3.1459 North  Level Estimated
Thu 07:38:00 AM 44.8116 -3.1276 North  Level Estimated
Thu 07:39:00 AM 44.9072 -3.1093 North  Level Estimated
Thu 07:40:00 AM 45.0028 -3.0909 North  Level Estimated
Thu 07:41:00 AM 45.0984 -3.0724 North  Level Estimated
Thu 07:42:00 AM 45.1940 -3.0539 North  Level Estimated
Thu 07:43:00 AM 45.2896 -3.0353 North  Level Estimated
Thu 07:44:00 AM 45.3852 -3.0167 North  Level Estimated
Thu 07:45:00 AM 45.4808 -2.9980 North  Level Estimated
Thu 07:46:00 AM 45.5764 -2.9792 North  Level Estimated
Thu 07:47:00 AM 45.6720 -2.9604 North  Level Estimated
Thu 07:48:00 AM 45.7676 -2.9415 North  Level Estimated
Thu 07:49:00 AM 45.8632 -2.9225 North  Level Estimated
Thu 07:50:00 AM 45.9588 -2.9035 North  Level Estimated
Thu 07:51:00 AM 46.0544 -2.8844 North  Level Estimated
Thu 07:52:00 AM 46.1499 -2.8652 North  Level Estimated
Thu 07:53:00 AM 46.2455 -2.8460 North  Level Estimated
Thu 07:54:00 AM 46.3411 -2.8267 North  Level Estimated
Thu 07:55:00 AM 46.4367 -2.8074 North  Level Estimated
Thu 07:56:00 AM 46.5322 -2.7879 North  Level Estimated
Thu 07:57:00 AM 46.6278 -2.7684 North  Level Estimated
Thu 07:58:00 AM 46.7234 -2.7489 North  Level Estimated
Thu 07:59:00 AM 46.8189 -2.7292 North  Level Estimated
Thu 08:00:00 AM 46.9145 -2.7095 North  Level Estimated
Thu 08:01:00 AM 47.0100 -2.6897 North  Level Estimated
Thu 08:02:00 AM 47.1056 -2.6699 North  Level Estimated
Thu 08:03:00 AM 47.2011 -2.6500 North  Level Estimated
Thu 08:04:00 AM 47.2966 -2.6300 North  Level Estimated
Thu 08:05:00 AM 47.3922 -2.6099 North  Level Estimated
Thu 08:06:00 AM 47.4877 -2.5898 North  Level Estimated
Thu 08:07:00 AM 47.5832 -2.5696 North  Level Estimated
Thu 08:08:00 AM 47.6788 -2.5493 North  Level Estimated
Thu 08:09:00 AM 47.7743 -2.5289 North  Level Estimated
Thu 08:10:00 AM 47.8698 -2.5085 North  Level Estimated
Thu 08:11:00 AM 47.9653 -2.4880 North  Level Estimated
Thu 08:12:00 AM 48.0608 -2.4674 North  Level Estimated
Thu 08:13:00 AM 48.1563 -2.4467 North  Level Estimated
Thu 08:14:00 AM 48.2519 -2.4260 North  Level Estimated
Thu 08:15:00 AM 48.3474 -2.4052 North  Level Estimated
Thu 08:16:00 AM 48.4428 -2.3843 North  Level Estimated
Thu 08:17:00 AM 48.5383 -2.3633 North  Level Estimated
Thu 08:18:00 AM 48.6338 -2.3423 North  Level Estimated
Thu 08:19:00 AM 48.7293 -2.3212 North  Level Estimated
Thu 08:20:00 AM 48.8248 -2.2999 North  Level Estimated
Thu 08:21:00 AM 48.9203 -2.2787 North  Level Estimated
Thu 08:22:00 AM 49.0157 -2.2573 North  Level Estimated
Thu 08:23:00 AM 49.1112 -2.2358 North  Level Estimated
Thu 08:24:00 AM 49.2067 -2.2143 North  Level Estimated
Thu 08:25:00 AM 49.3021 -2.1927 North  Level Estimated
Thu 08:26:00 AM 49.3976 -2.1709 North  Level Estimated
Thu 08:27:00 AM 49.4930 -2.1492 North  Level Estimated
Thu 08:28:00 AM 49.5885 -2.1273 North  Level Estimated
Thu 08:29:00 AM 49.6839 -2.1053 North  Level Estimated
Thu 08:30:00 AM 49.7794 -2.0833 North  Level Estimated
Thu 08:31:00 AM 49.8748 -2.0611 North  Level Estimated
Thu 08:32:00 AM 49.9702 -2.0389 North  Level Estimated
Thu 08:33:00 AM 50.0657 -2.0166 North  Level Estimated
Thu 08:34:00 AM 50.1611 -1.9942 North  Level Estimated
Thu 08:35:00 AM 50.2565 -1.9717 North  Level Estimated
Thu 08:36:00 AM 50.3519 -1.9491 North  Level Estimated
Thu 08:37:00 AM 50.4473 -1.9265 North  Level Estimated
Thu 08:38:00 AM 50.5428 -1.9037 North  Level Estimated
Thu 08:39:00 AM 50.6381 -1.8809 North  Level Estimated
Thu 08:40:00 AM 50.7336 -1.8579 North  Level Estimated
Thu 08:41:00 AM 50.8289 -1.8349 North  Level Estimated
Thu 08:42:00 AM 50.9243 -1.8117 North  Level Estimated
Thu 08:43:00 AM 51.0197 -1.7885 North  Level Estimated
Thu 08:44:00 AM 51.1151 -1.7652 North  Level Estimated
Thu 08:45:00 AM 51.2105 -1.7418 North  Level Estimated
Thu 08:46:00 AM 51.3058 -1.7182 North  Level Estimated
Thu 08:47:00 AM 51.4012 -1.6946 North  Level Estimated
Thu 08:48:00 AM 51.4966 -1.6709 North  Level Estimated
Thu 08:49:00 AM 51.5919 -1.6471 North  Level Estimated
Thu 08:50:00 AM 51.6873 -1.6231 North  Level Estimated
Thu 08:51:00 AM 51.7826 -1.5991 North  Level Estimated
Thu 08:52:00 AM 51.8779 -1.5750 North  Level Estimated
Thu 08:53:00 AM 51.9733 -1.5508 North  Level Estimated
Thu 08:54:00 AM 52.0686 -1.5265 North  Level Estimated
Thu 08:55:00 AM 52.1640 -1.5020 North  Level Estimated
Thu 08:56:00 AM 52.2593 -1.4775 North  Level Estimated
Thu 08:57:00 AM 52.3546 -1.4529 North  Level Estimated
Thu 08:58:00 AM 52.4499 -1.4281 North  Level Estimated
Thu 08:59:00 AM 52.5452 -1.4033 North  Level Estimated
Thu 09:00:00 AM 52.6405 -1.3783 North  Level Estimated
Thu 09:01:00 AM 52.7358 -1.3532 North  Level Estimated
Thu 09:02:00 AM 52.8311 -1.3281 North  Level Estimated
Thu 09:03:00 AM 52.8311 -1.3281 North  Level Estimated
Thu 09:04:00 AM 52.8311 -1.3281 68° East  Level Estimated
Thu 09:05:00 AM 52.8311 -1.3281 68° East  Level Estimated
Thu 09:06:00 AM 52.8311 -1.3281 68° East  Level Estimated
Thu 09:07:00 AM 52.8311 -1.3281 68° East  Level Estimated
Thu 09:08:00 AM 52.8311 -1.3281 68° East  Level Estimated
Thu 09:09:00 AM 52.8311 -1.3281 68° East  Level Estimated
Thu 09:10:00 AM 52.8311 -1.3281 68° East  Level Estimated
Thu 09:11:00 AM 52.8311 -1.3281 68° East  Level Estimated

Login

Don't have an account? Register now (free) for customized features, flight alerts, and more!